Terminal Aerodrome Forecast
Issued by NWS

Current Version | Previous Version | Text Only | Print | Product List | Glossary On
Versions: 1 2 3 4 5 6 7 8 9 10 11 12
048
FTUS44 KTSA 252320
TAFMLC
TAF
KMLC 252320Z 2600/2624 VRB05KT P6SM BKN250
     FM260600 13004KT P6SM SCT040 BKN180
     FM261400 16007KT P6SM SCT050 BKN100
     FM262100 35005KT P6SM SCT050 BKN100=

USA.gov is the U.S. government's official web portal to all federal, state and local government web resources and services.